createdAt,value
2017-04-10T00:00:49.417Z,11.83
2017-04-10T00:01:47.989Z,12.13
2017-04-10T00:02:47.163Z,11.13
2017-04-10T00:03:45.571Z,12.15
2017-04-10T00:04:44.027Z,11.52
2017-04-10T00:05:43.424Z,10.40
2017-04-10T00:06:41.837Z,12.32
2017-04-10T00:07:41.040Z,9.88
2017-04-10T00:08:39.460Z,10.98
2017-04-10T00:09:37.901Z,11.75
2017-04-10T00:10:36.616Z,11.48
2017-04-10T00:11:35.077Z,11.60
2017-04-10T00:12:33.749Z,11.72
2017-04-10T00:13:32.195Z,11.65
2017-04-10T00:14:30.700Z,11.27
2017-04-10T00:15:29.096Z,14.92
2017-04-10T00:16:28.272Z,11.70
2017-04-10T00:17:28.268Z,11.30
2017-04-10T00:18:26.707Z,13.00
2017-04-10T00:19:25.127Z,14.40
2017-04-10T00:20:24.389Z,12.05
2017-04-10T00:21:22.825Z,11.65
2017-04-10T00:22:21.581Z,10.25
2017-04-10T00:23:20.014Z,10.45
2017-04-10T00:24:19.166Z,10.58
2017-04-10T00:25:18.569Z,9.87
2017-04-10T00:26:17.040Z,11.85
2017-04-10T00:27:15.457Z,9.83
2017-04-10T00:28:13.837Z,12.10
2017-04-10T00:29:12.287Z,10.37
2017-04-10T00:30:11.427Z,11.62
2017-04-10T00:31:10.557Z,10.82
2017-04-10T00:32:09.847Z,13.78
2017-04-10T00:33:09.032Z,13.90
2017-04-10T00:34:08.196Z,10.50
2017-04-10T00:35:06.600Z,10.33
2017-04-10T00:36:05.000Z,10.73
2017-04-10T00:37:03.413Z,10.35
2017-04-10T00:38:01.848Z,12.28
2017-04-10T00:39:02.696Z,10.50
2017-04-10T00:40:01.100Z,10.62
2017-04-10T00:41:00.295Z,10.58
2017-04-10T00:41:58.703Z,9.60
2017-04-10T00:42:57.452Z,11.37
2017-04-10T00:43:55.895Z,10.55
2017-04-10T00:44:55.041Z,13.05
2017-04-10T00:45:53.460Z,11.78
2017-04-10T00:46:52.618Z,11.28
2017-04-10T00:47:51.086Z,12.18
2017-04-10T00:48:49.510Z,11.30
2017-04-10T00:49:47.877Z,12.03
2017-04-10T00:50:46.298Z,11.00
2017-04-10T00:51:44.785Z,12.75
2017-04-10T00:52:43.982Z,12.12
2017-04-10T00:53:43.157Z,11.63
2017-04-10T00:54:42.319Z,12.53
2017-04-10T00:55:40.766Z,12.05
2017-04-10T00:56:39.144Z,11.47
2017-04-10T00:57:38.297Z,11.85
2017-04-10T00:58:37.372Z,11.12
2017-04-10T00:59:35.818Z,11.13
2017-04-10T01:00:34.366Z,12.25
2017-04-10T01:01:33.019Z,11.67
2017-04-10T01:02:31.606Z,11.53
2017-04-10T01:03:30.030Z,11.77
2017-04-10T01:04:28.402Z,12.65
2017-04-10T01:05:26.892Z,13.37
2017-04-10T01:06:25.290Z,11.02
2017-04-10T01:07:23.849Z,11.58
2017-04-10T01:08:22.231Z,11.72
2017-04-10T01:09:20.722Z,12.62
2017-04-10T01:10:19.886Z,12.88
2017-04-10T01:11:20.835Z,13.15
2017-04-10T01:12:19.260Z,10.80
2017-04-10T01:13:17.665Z,11.18
2017-04-10T01:14:16.134Z,12.70
2017-04-10T01:15:14.586Z,11.63
2017-04-10T01:16:13.011Z,11.47
2017-04-10T01:17:12.192Z,12.67
2017-04-10T01:18:11.347Z,11.70
2017-04-10T01:19:10.528Z,13.07
2017-04-10T01:20:09.359Z,12.50
2017-04-10T01:21:08.547Z,13.23
2017-04-10T01:22:07.368Z,12.97
2017-04-10T01:23:05.759Z,12.52
2017-04-10T01:24:04.190Z,12.75
2017-04-10T01:25:02.577Z,10.98
2017-04-10T01:26:01.121Z,12.95
2017-04-10T01:27:00.219Z,11.13
2017-04-10T01:27:58.626Z,11.80
2017-04-10T01:28:57.006Z,11.65
2017-04-10T01:29:56.151Z,13.75
2017-04-10T01:30:54.887Z,13.55
2017-04-10T01:31:54.017Z,13.55
2017-04-10T01:32:55.078Z,12.25
2017-04-10T01:33:53.492Z,13.15
2017-04-10T01:34:51.891Z,14.52
2017-04-10T01:35:50.284Z,12.70
2017-04-10T01:36:48.728Z,12.55
2017-04-10T01:37:47.143Z,12.95
2017-04-10T01:38:46.435Z,11.30
2017-04-10T01:39:45.566Z,11.50
2017-04-10T01:40:43.943Z,11.47
2017-04-10T01:41:42.368Z,12.47
2017-04-10T01:42:41.570Z,13.67
2017-04-10T01:43:40.256Z,14.63
2017-04-10T01:44:38.672Z,12.58
2017-04-10T01:45:37.050Z,14.70
2017-04-10T01:46:36.168Z,13.18
2017-04-10T01:47:34.566Z,12.62
2017-04-10T01:48:32.953Z,12.60
2017-04-10T01:49:32.023Z,12.72
2017-04-10T01:50:30.487Z,12.35
2017-04-10T01:51:29.011Z,13.22
2017-04-10T01:52:28.152Z,13.55
2017-04-10T01:53:26.571Z,12.00
2017-04-10T01:54:25.696Z,11.78
2017-04-10T01:55:24.120Z,12.83
2017-04-10T01:56:23.657Z,14.33
2017-04-10T01:57:22.132Z,14.82
2017-04-10T01:58:20.539Z,12.30
2017-04-10T01:59:18.928Z,12.42
2017-04-10T02:00:18.075Z,14.95
2017-04-10T02:01:16.440Z,11.75
2017-04-10T02:02:14.954Z,13.02
2017-04-10T02:03:14.125Z,11.15
2017-04-10T02:04:12.529Z,10.33
2017-04-10T02:05:10.907Z,14.22
2017-04-10T02:06:09.303Z,13.10
2017-04-10T02:07:07.758Z,11.10
2017-04-10T02:08:06.220Z,11.60
2017-04-10T02:09:04.920Z,13.18
2017-04-10T02:10:03.348Z,15.82
2017-04-10T02:11:01.826Z,12.50
2017-04-10T02:12:00.297Z,11.07
2017-04-10T02:12:59.168Z,10.53
2017-04-10T02:13:57.558Z,11.28
2017-04-10T02:14:55.924Z,12.00
2017-04-10T02:15:54.492Z,10.48
2017-04-10T02:16:52.973Z,11.18
2017-04-10T02:17:52.105Z,11.37
2017-04-10T02:18:50.608Z,17.43
2017-04-10T02:19:49.027Z,10.60
2017-04-10T02:20:47.445Z,11.40
2017-04-10T02:21:45.868Z,12.35
2017-04-10T02:22:44.272Z,11.20
2017-04-10T02:23:43.433Z,12.85
2017-04-10T02:24:41.876Z,13.98
2017-04-10T02:25:40.337Z,10.88
2017-04-10T02:26:38.741Z,11.60
2017-04-10T02:27:37.180Z,11.23
2017-04-10T02:28:35.558Z,10.97
2017-04-10T02:29:33.996Z,11.97
2017-04-10T02:30:32.433Z,12.03
2017-04-10T02:31:30.861Z,12.70
2017-04-10T02:32:29.627Z,13.88
2017-04-10T02:33:28.020Z,9.63
2017-04-10T02:34:26.408Z,10.03
2017-04-10T02:35:24.800Z,11.77
2017-04-10T02:36:23.231Z,11.83
2017-04-10T02:37:22.462Z,10.82
2017-04-10T02:38:21.574Z,11.35
2017-04-10T02:39:19.969Z,10.95
2017-04-10T02:40:19.745Z,9.80
2017-04-10T02:41:18.142Z,11.33
2017-04-10T02:42:16.577Z,9.78
2017-04-10T02:43:15.368Z,10.53
2017-04-10T02:44:13.850Z,10.62
2017-04-10T02:45:12.238Z,11.00
2017-04-10T02:46:10.599Z,10.52
2017-04-10T02:47:08.984Z,11.60
2017-04-10T02:48:07.491Z,10.75
2017-04-10T02:49:05.886Z,13.53
2017-04-10T02:50:04.360Z,9.73
2017-04-10T02:51:02.743Z,10.98
2017-04-10T02:52:01.174Z,9.92
2017-04-10T02:52:59.855Z,9.55
2017-04-10T02:54:00.816Z,10.75
2017-04-10T02:54:59.220Z,10.22
2017-04-10T02:55:58.375Z,10.05
2017-04-10T02:56:56.868Z,10.13
2017-04-10T02:57:55.275Z,10.10
2017-04-10T02:58:53.638Z,8.93
2017-04-10T02:59:52.091Z,10.57
2017-04-10T03:00:51.311Z,11.63
2017-04-10T03:01:49.702Z,9.78
2017-04-10T03:02:48.561Z,9.95
2017-04-10T03:03:46.953Z,9.85
2017-04-10T03:04:45.356Z,12.77
2017-04-10T03:05:44.564Z,10.25
2017-04-10T03:06:45.413Z,10.50
2017-04-10T03:07:47.149Z,9.03
2017-04-10T03:08:45.545Z,10.77
2017-04-10T03:09:43.939Z,8.90
2017-04-10T03:10:42.316Z,9.87
2017-04-10T03:11:40.800Z,9.88
2017-04-10T03:12:40.080Z,8.88
2017-04-10T03:13:38.458Z,9.15
2017-04-10T03:14:37.628Z,9.32
2017-04-10T03:15:36.027Z,10.12
2017-04-10T03:16:35.169Z,8.40
2017-04-10T03:17:33.608Z,8.35
2017-04-10T03:18:32.009Z,8.55
2017-04-10T03:19:30.421Z,8.85
2017-04-10T03:20:29.591Z,8.87
2017-04-10T03:21:27.972Z,9.65
2017-04-10T03:22:27.117Z,8.83
2017-04-10T03:23:25.690Z,9.58
2017-04-10T03:24:24.081Z,8.92
2017-04-10T03:25:22.477Z,8.55
2017-04-10T03:26:20.880Z,8.82
2017-04-10T03:27:19.269Z,10.30
2017-04-10T03:28:17.721Z,14.43
2017-04-10T03:29:16.633Z,11.88
2017-04-10T03:30:15.067Z,10.15
2017-04-10T03:31:13.453Z,13.20
2017-04-10T03:32:11.873Z,9.35
2017-04-10T03:33:11.029Z,12.68
2017-04-10T03:34:09.401Z,9.28
2017-04-10T03:35:08.461Z,10.57
2017-04-10T03:36:06.917Z,11.55
2017-04-10T03:37:05.311Z,10.85
2017-04-10T03:38:03.695Z,12.57
2017-04-10T03:39:02.446Z,11.68
2017-04-10T03:40:00.848Z,10.55
2017-04-10T03:40:59.325Z,10.12
2017-04-10T03:41:57.775Z,10.17
2017-04-10T03:42:56.175Z,10.68
2017-04-10T03:43:55.683Z,10.40
2017-04-10T03:44:54.074Z,10.73
2017-04-10T03:45:52.555Z,9.57
2017-04-10T03:46:50.987Z,10.48
2017-04-10T03:47:49.365Z,10.18
2017-04-10T03:48:48.031Z,10.70
2017-04-10T03:49:46.424Z,13.23
2017-04-10T03:50:44.874Z,10.12
2017-04-10T03:51:43.262Z,9.52
2017-04-10T03:52:41.707Z,12.83
2017-04-10T03:53:40.844Z,10.82
2017-04-10T03:54:39.254Z,10.10
2017-04-10T03:55:38.698Z,10.47
2017-04-10T03:56:37.102Z,11.52
2017-04-10T03:57:36.111Z,10.73
2017-04-10T03:58:34.577Z,11.13
2017-04-10T03:59:33.750Z,10.70
2017-04-10T04:00:32.879Z,12.62
2017-04-10T04:01:31.293Z,11.32
2017-04-10T04:02:29.698Z,12.00
2017-04-10T04:03:28.443Z,10.77
2017-04-10T04:04:26.926Z,10.32
2017-04-10T04:05:26.065Z,10.87
2017-04-10T04:06:24.453Z,11.07
2017-04-10T04:07:22.871Z,10.25
2017-04-10T04:08:21.267Z,9.75
2017-04-10T04:09:20.628Z,10.40
2017-04-10T04:10:19.784Z,10.32
2017-04-10T04:11:18.179Z,10.88
2017-04-10T04:12:17.371Z,9.67
2017-04-10T04:13:16.090Z,9.73
2017-04-10T04:14:14.500Z,9.80
2017-04-10T04:15:12.934Z,10.28
2017-04-10T04:16:12.161Z,9.28
2017-04-10T04:17:10.911Z,9.68
2017-04-10T04:18:09.310Z,10.80
2017-04-10T04:19:08.056Z,9.85
2017-04-10T04:20:06.513Z,10.22
2017-04-10T04:21:04.921Z,13.15
2017-04-10T04:22:04.127Z,10.20
2017-04-10T04:23:02.569Z,10.75
2017-04-10T04:24:00.983Z,9.88
2017-04-10T04:24:59.403Z,9.88
2017-04-10T04:25:57.815Z,9.35
2017-04-10T04:26:57.238Z,9.88
2017-04-10T04:27:55.681Z,9.18
2017-04-10T04:28:54.465Z,11.35
2017-04-10T04:29:52.878Z,9.20
2017-04-10T04:30:51.266Z,9.95
2017-04-10T04:31:50.390Z,10.78
2017-04-10T04:32:48.807Z,8.35
2017-04-10T04:33:47.269Z,9.58
2017-04-10T04:34:45.693Z,10.98
2017-04-10T04:35:44.083Z,11.52
2017-04-10T04:36:42.471Z,11.98
2017-04-10T04:37:40.875Z,9.10
2017-04-10T04:38:40.015Z,9.68
2017-04-10T04:39:38.518Z,10.57
2017-04-10T04:40:36.902Z,10.92
2017-04-10T04:41:36.410Z,9.38
2017-04-10T04:42:37.821Z,11.52
2017-04-10T04:43:36.243Z,9.02
2017-04-10T04:44:34.652Z,9.17
2017-04-10T04:45:34.585Z,11.18
2017-04-10T04:46:32.966Z,15.65
2017-04-10T04:47:31.430Z,16.95
2017-04-10T04:48:29.836Z,13.05
2017-04-10T04:49:28.256Z,10.93
2017-04-10T04:50:27.381Z,9.60
2017-04-10T04:51:26.155Z,9.62
2017-04-10T04:52:24.692Z,10.13
2017-04-10T04:53:23.821Z,9.28
2017-04-10T04:54:22.210Z,9.62
2017-04-10T04:55:20.994Z,8.75
2017-04-10T04:56:19.457Z,8.65
2017-04-10T04:57:17.853Z,9.98
2017-04-10T04:58:16.991Z,8.00
2017-04-10T04:59:15.423Z,8.47
2017-04-10T05:00:15.009Z,10.68
2017-04-10T05:01:14.191Z,7.77
2017-04-10T05:02:12.573Z,8.95
2017-04-10T05:03:11.730Z,9.10
2017-04-10T05:04:10.204Z,10.35
2017-04-10T05:05:08.577Z,8.98
2017-04-10T05:06:08.891Z,8.82
2017-04-10T05:07:07.691Z,11.02
2017-04-10T05:08:06.869Z,8.78
2017-04-10T05:09:06.029Z,11.27
2017-04-10T05:10:05.391Z,10.37
2017-04-10T05:11:03.822Z,12.73
2017-04-10T05:12:03.042Z,11.23
2017-04-10T05:13:01.493Z,13.20
2017-04-10T05:14:00.670Z,10.30
2017-04-10T05:14:59.833Z,9.93
2017-04-10T05:15:58.263Z,9.03
2017-04-10T05:16:56.658Z,8.63
2017-04-10T05:17:55.051Z,11.22
2017-04-10T05:18:53.520Z,9.80
2017-04-10T05:19:52.335Z,8.25
2017-04-10T05:20:50.718Z,13.80
2017-04-10T05:21:49.149Z,10.42
2017-04-10T05:22:48.421Z,12.97
2017-04-10T05:23:47.224Z,9.22
2017-04-10T05:24:46.449Z,8.18
2017-04-10T05:25:44.866Z,9.05
2017-04-10T05:26:43.272Z,8.25
2017-04-10T05:27:42.037Z,7.45
2017-04-10T05:28:40.444Z,6.87
2017-04-10T05:29:39.558Z,7.05
2017-04-10T05:30:38.293Z,7.05
2017-04-10T05:31:36.683Z,8.68
2017-04-10T05:32:35.078Z,9.37
2017-04-10T05:33:33.553Z,7.20
2017-04-10T05:34:32.765Z,7.85
2017-04-10T05:35:31.140Z,9.87
2017-04-10T05:36:29.620Z,8.20
2017-04-10T05:37:29.315Z,7.78
2017-04-10T05:38:27.713Z,9.85
2017-04-10T05:39:26.091Z,7.17
2017-04-10T05:40:24.523Z,8.98
2017-04-10T05:41:22.878Z,7.47
2017-04-10T05:42:22.614Z,18.17
2017-04-10T05:43:21.022Z,7.47
2017-04-10T05:44:19.425Z,8.22
2017-04-10T05:45:17.785Z,8.90
2017-04-10T05:46:16.166Z,8.72
2017-04-10T05:47:14.573Z,7.03
2017-04-10T05:48:13.976Z,11.18
2017-04-10T05:49:12.339Z,7.32
2017-04-10T05:50:10.761Z,8.22
2017-04-10T05:51:09.174Z,9.73
2017-04-10T05:52:07.580Z,7.03
2017-04-10T05:53:05.956Z,6.67
2017-04-10T05:54:05.146Z,7.20
2017-04-10T05:55:03.618Z,6.72
2017-04-10T05:56:02.007Z,8.78
2017-04-10T05:57:00.503Z,7.18
2017-04-10T05:57:58.878Z,5.85
2017-04-10T05:58:57.273Z,9.08
2017-04-10T05:59:56.162Z,7.57
2017-04-10T06:00:55.678Z,6.53
2017-04-10T06:01:54.065Z,7.78
2017-04-10T06:02:52.491Z,8.22
2017-04-10T06:03:51.625Z,6.38
2017-04-10T06:04:50.034Z,6.22
2017-04-10T06:05:48.436Z,7.05
2017-04-10T06:06:46.868Z,10.25
2017-04-10T06:07:45.325Z,7.63
2017-04-10T06:08:44.387Z,6.90
2017-04-10T06:09:42.750Z,6.17
2017-04-10T06:10:41.978Z,6.10
2017-04-10T06:11:40.421Z,6.88
2017-04-10T06:12:38.804Z,5.67
2017-04-10T06:13:38.123Z,5.60
2017-04-10T06:14:37.266Z,6.53
2017-04-10T06:15:36.664Z,19.08
2017-04-10T06:16:35.041Z,16.03
2017-04-10T06:17:34.360Z,8.92
2017-04-10T06:18:33.411Z,9.28
2017-04-10T06:19:31.793Z,7.42
2017-04-10T06:20:30.205Z,7.03
2017-04-10T06:21:28.601Z,5.32
2017-04-10T06:22:27.058Z,5.35
2017-04-10T06:23:25.502Z,6.37
2017-04-10T06:24:24.649Z,5.83
2017-04-10T06:25:23.004Z,12.72
2017-04-10T06:26:21.441Z,6.95
2017-04-10T06:27:19.863Z,8.60
2017-04-10T06:28:18.260Z,5.72
2017-04-10T06:29:17.423Z,8.33
2017-04-10T06:30:15.823Z,7.70
2017-04-10T06:31:14.957Z,7.08
2017-04-10T06:32:13.350Z,5.88
2017-04-10T06:33:11.735Z,6.47
2017-04-10T06:34:10.868Z,6.68
2017-04-10T06:35:09.310Z,6.68
2017-04-10T06:36:08.507Z,9.68
2017-04-10T06:37:06.881Z,5.77
2017-04-10T06:38:05.292Z,8.15
2017-04-10T06:39:04.601Z,10.28
2017-04-10T06:40:03.015Z,6.43
2017-04-10T06:41:01.501Z,9.93
2017-04-10T06:42:00.863Z,7.53
2017-04-10T06:42:59.261Z,7.42
2017-04-10T06:43:57.647Z,5.78
2017-04-10T06:44:56.056Z,7.32
2017-04-10T06:45:55.215Z,6.57
2017-04-10T06:46:53.664Z,6.50
2017-04-10T06:47:52.439Z,7.05
2017-04-10T06:48:51.576Z,6.73
2017-04-10T06:49:50.722Z,5.37
2017-04-10T06:50:49.469Z,6.75
2017-04-10T06:51:47.926Z,5.58
2017-04-10T06:52:46.365Z,6.93
2017-04-10T06:53:45.686Z,6.50
2017-04-10T06:54:44.103Z,8.37
2017-04-10T06:55:42.533Z,11.55
2017-04-10T06:56:40.929Z,7.20
2017-04-10T06:57:39.782Z,5.73
2017-04-10T06:58:38.234Z,8.85
2017-04-10T06:59:36.644Z,8.05
2017-04-10T07:00:35.551Z,5.70
2017-04-10T07:01:34.028Z,6.70
2017-04-10T07:02:33.135Z,9.25
2017-04-10T07:03:32.287Z,6.17
2017-04-10T07:04:30.724Z,6.60
2017-04-10T07:05:29.573Z,6.25
2017-04-10T07:06:28.708Z,5.40
2017-04-10T07:07:28.644Z,5.30
2017-04-10T07:08:27.049Z,4.70
2017-04-10T07:09:25.586Z,4.93
2017-04-10T07:10:23.973Z,5.28
2017-04-10T07:11:23.128Z,5.87
2017-04-10T07:12:21.536Z,4.47
2017-04-10T07:13:20.688Z,7.33
2017-04-10T07:14:19.726Z,6.78
2017-04-10T07:15:18.191Z,5.35
2017-04-10T07:16:16.546Z,5.75
2017-04-10T07:17:15.716Z,5.17
2017-04-10T07:18:15.242Z,6.42
2017-04-10T07:19:13.657Z,4.65
2017-04-10T07:20:12.053Z,6.83
2017-04-10T07:21:11.190Z,5.35
2017-04-10T07:22:09.633Z,8.65
2017-04-10T07:23:08.505Z,6.47
2017-04-10T07:24:07.616Z,4.68
2017-04-10T07:25:06.383Z,5.73
2017-04-10T07:26:04.777Z,5.82
2017-04-10T07:27:03.220Z,5.53
2017-04-10T07:28:01.623Z,6.93
2017-04-10T07:29:00.065Z,6.53
2017-04-10T07:29:58.509Z,5.85
2017-04-10T07:30:58.377Z,4.58
2017-04-10T07:31:56.826Z,5.12
2017-04-10T07:32:55.230Z,7.50
2017-04-10T07:33:53.606Z,5.18
2017-04-10T07:34:52.760Z,7.62
2017-04-10T07:35:51.204Z,6.93
2017-04-10T07:36:49.661Z,5.37
2017-04-10T07:37:48.042Z,7.08
2017-04-10T07:38:46.445Z,5.42
2017-04-10T07:39:44.841Z,6.58
2017-04-10T07:40:43.998Z,4.37
2017-04-10T07:41:42.470Z,5.13
2017-04-10T07:42:40.891Z,5.18
2017-04-10T07:43:39.275Z,4.63
2017-04-10T07:44:37.679Z,5.87
2017-04-10T07:45:37.128Z,5.83
2017-04-10T07:46:35.526Z,5.07
2017-04-10T07:47:33.934Z,4.00
2017-04-10T07:48:32.409Z,4.65
2017-04-10T07:49:31.563Z,5.40
2017-04-10T07:50:29.983Z,6.40
2017-04-10T07:51:28.619Z,6.12
2017-04-10T07:52:27.412Z,8.48
2017-04-10T07:53:25.807Z,7.20
2017-04-10T07:54:24.228Z,8.73
2017-04-10T07:55:22.610Z,4.67
2017-04-10T07:56:21.001Z,4.60
2017-04-10T07:57:21.853Z,5.12
2017-04-10T07:58:20.257Z,6.17
2017-04-10T07:59:18.729Z,6.98
2017-04-10T08:00:17.565Z,6.02
2017-04-10T08:01:16.147Z,6.12
2017-04-10T08:02:14.535Z,5.15
2017-04-10T08:03:13.023Z,5.27
2017-04-10T08:04:11.427Z,6.07
2017-04-10T08:05:10.574Z,4.50
2017-04-10T08:06:08.988Z,6.30
2017-04-10T08:07:08.134Z,4.82
2017-04-10T08:08:06.513Z,5.17
2017-04-10T08:09:05.326Z,7.75
2017-04-10T08:10:04.506Z,18.08
2017-04-10T08:11:03.660Z,9.12
2017-04-10T08:12:02.079Z,5.63
2017-04-10T08:13:00.473Z,5.47
2017-04-10T08:13:58.878Z,4.93
2017-04-10T08:14:57.376Z,4.30
2017-04-10T08:15:56.567Z,4.77
2017-04-10T08:16:55.703Z,4.18
2017-04-10T08:17:54.071Z,4.53
2017-04-10T08:18:53.148Z,4.32
2017-04-10T08:19:51.533Z,4.27
2017-04-10T08:20:50.643Z,4.00
2017-04-10T08:21:49.805Z,3.97
2017-04-10T08:22:48.221Z,4.37
2017-04-10T08:23:46.630Z,3.82
2017-04-10T08:24:45.058Z,4.75
2017-04-10T08:25:44.223Z,4.00
2017-04-10T08:26:42.738Z,3.95
2017-04-10T08:27:41.167Z,6.00
2017-04-10T08:28:40.362Z,4.00
2017-04-10T08:29:39.569Z,4.80
2017-04-10T08:30:37.997Z,4.58
2017-04-10T08:31:36.376Z,6.63
2017-04-10T08:32:34.891Z,6.53
2017-04-10T08:33:33.341Z,4.73
2017-04-10T08:34:33.209Z,4.50
2017-04-10T08:35:31.589Z,6.27
2017-04-10T08:36:29.974Z,6.53
2017-04-10T08:37:29.098Z,3.97
2017-04-10T08:38:27.501Z,6.02
2017-04-10T08:39:26.259Z,7.82
2017-04-10T08:40:24.998Z,4.18
2017-04-10T08:41:23.437Z,4.45
2017-04-10T08:42:22.189Z,6.05
2017-04-10T08:43:20.658Z,5.07
2017-04-10T08:44:19.117Z,3.87
2017-04-10T08:45:17.550Z,4.20
2017-04-10T08:46:16.695Z,4.65
2017-04-10T08:47:15.147Z,4.03
2017-04-10T08:48:13.559Z,5.52
2017-04-10T08:49:13.017Z,4.98
2017-04-10T08:50:12.200Z,5.25
2017-04-10T08:51:11.395Z,3.68
2017-04-10T08:52:09.808Z,4.33
2017-04-10T08:53:08.942Z,3.17
2017-04-10T08:54:07.389Z,3.58
2017-04-10T08:55:05.795Z,3.65
2017-04-10T08:56:04.619Z,3.80
2017-04-10T08:57:03.771Z,6.87
2017-04-10T08:58:02.271Z,4.08
2017-04-10T08:59:01.468Z,3.52
2017-04-10T08:59:59.873Z,5.05
2017-04-10T09:00:58.317Z,6.80
2017-04-10T09:01:56.790Z,4.72
2017-04-10T09:02:55.239Z,3.83
2017-04-10T09:03:54.391Z,3.58
2017-04-10T09:04:52.792Z,3.62
2017-04-10T09:05:51.894Z,5.15
2017-04-10T09:06:50.351Z,4.42
2017-04-10T09:07:48.771Z,4.13
2017-04-10T09:08:47.172Z,3.72
2017-04-10T09:09:45.585Z,3.55
2017-04-10T09:10:43.973Z,3.75
2017-04-10T09:11:42.376Z,3.68
2017-04-10T09:12:40.874Z,3.77
2017-04-10T09:13:40.056Z,7.02
2017-04-10T09:14:39.916Z,4.72
2017-04-10T09:15:38.312Z,5.03
2017-04-10T09:16:37.449Z,4.23
2017-04-10T09:17:35.879Z,5.33
2017-04-10T09:18:36.898Z,4.88
2017-04-10T09:19:36.034Z,4.37
2017-04-10T09:20:34.422Z,3.65
2017-04-10T09:21:33.623Z,4.40
2017-04-10T09:22:32.038Z,3.62
2017-04-10T09:23:30.452Z,4.25
2017-04-10T09:24:28.923Z,5.93
2017-04-10T09:25:27.320Z,2.92
2017-04-10T09:26:26.465Z,3.20
2017-04-10T09:27:24.851Z,2.92
2017-04-10T09:28:23.307Z,3.20
2017-04-10T09:29:21.744Z,4.20
2017-04-10T09:30:20.174Z,3.25
2017-04-10T09:31:18.599Z,3.98
2017-04-10T09:32:17.377Z,4.05
2017-04-10T09:33:16.601Z,5.48
2017-04-10T09:34:15.023Z,3.47
2017-04-10T09:35:13.451Z,3.43
2017-04-10T09:36:11.895Z,6.35
2017-04-10T09:37:10.740Z,3.57
2017-04-10T09:38:09.169Z,3.48
2017-04-10T09:39:07.635Z,3.33
2017-04-10T09:40:06.022Z,3.82
2017-04-10T09:41:05.216Z,3.07
2017-04-10T09:42:04.366Z,3.00
2017-04-10T09:43:02.772Z,3.48
2017-04-10T09:44:01.904Z,3.50
2017-04-10T09:45:00.416Z,3.07
2017-04-10T09:45:59.616Z,4.47
2017-04-10T09:46:58.785Z,3.52
2017-04-10T09:47:57.231Z,3.57
2017-04-10T09:48:55.964Z,3.63
2017-04-10T09:49:55.171Z,4.05
2017-04-10T09:50:53.633Z,3.65
2017-04-10T09:51:52.010Z,4.20
2017-04-10T09:52:50.399Z,2.97
2017-04-10T09:53:49.989Z,3.12
2017-04-10T09:54:48.378Z,3.18
2017-04-10T09:55:46.823Z,3.55
2017-04-10T09:56:45.327Z,4.88
2017-04-10T09:57:43.701Z,3.25
2017-04-10T09:58:42.133Z,2.85
2017-04-10T09:59:40.532Z,4.12
2017-04-10T10:00:39.056Z,5.02
2017-04-10T10:01:37.929Z,4.15
2017-04-10T10:02:36.397Z,5.00
2017-04-10T10:03:35.650Z,3.05
2017-04-10T10:04:34.195Z,4.05
2017-04-10T10:05:32.595Z,7.02
2017-04-10T10:06:31.010Z,3.58
2017-04-10T10:07:29.417Z,2.97
2017-04-10T10:08:28.392Z,4.25
2017-04-10T10:09:27.774Z,3.30
2017-04-10T10:10:26.216Z,2.57
2017-04-10T10:11:24.667Z,2.88
2017-04-10T10:12:23.123Z,2.95
2017-04-10T10:13:21.571Z,3.78
2017-04-10T10:14:19.973Z,3.67
2017-04-10T10:15:19.155Z,4.88
2017-04-10T10:16:18.358Z,5.73
2017-04-10T10:17:16.771Z,2.85
2017-04-10T10:18:15.196Z,3.83
2017-04-10T10:19:14.329Z,3.45
2017-04-10T10:20:12.992Z,3.50
2017-04-10T10:21:11.400Z,4.32
2017-04-10T10:22:09.810Z,2.78
2017-04-10T10:23:08.210Z,4.37
2017-04-10T10:24:06.639Z,4.32
2017-04-10T10:25:05.070Z,2.65
2017-04-10T10:26:03.496Z,3.97
2017-04-10T10:27:01.923Z,3.47
2017-04-10T10:28:00.402Z,4.73
2017-04-10T10:28:59.549Z,2.93
2017-04-10T10:29:59.685Z,2.88
2017-04-10T10:30:58.075Z,3.90
2017-04-10T10:31:57.211Z,3.22
2017-04-10T10:32:55.594Z,4.05
2017-04-10T10:33:54.007Z,2.92
2017-04-10T10:34:53.252Z,4.58
2017-04-10T10:35:51.652Z,2.95
2017-04-10T10:36:50.825Z,2.72
2017-04-10T10:37:49.294Z,3.10
2017-04-10T10:38:47.674Z,2.60
2017-04-10T10:39:46.887Z,3.27
2017-04-10T10:40:45.327Z,2.40
2017-04-10T10:41:43.762Z,2.78
2017-04-10T10:42:42.193Z,4.60
2017-04-10T10:43:41.422Z,3.57
2017-04-10T10:44:39.828Z,2.92
2017-04-10T10:45:38.309Z,2.43
2017-04-10T10:46:37.427Z,3.33
2017-04-10T10:47:35.841Z,4.48
2017-04-10T10:48:34.235Z,3.48
2017-04-10T10:49:33.395Z,9.05
2017-04-10T10:50:31.824Z,4.07
2017-04-10T10:51:30.241Z,2.87
2017-04-10T10:52:28.623Z,3.88
2017-04-10T10:53:27.001Z,2.98
2017-04-10T10:54:26.149Z,2.67
2017-04-10T10:55:24.613Z,2.32
2017-04-10T10:56:23.045Z,2.67
2017-04-10T10:57:21.471Z,2.42
2017-04-10T10:58:19.903Z,2.62
2017-04-10T10:59:18.369Z,2.58
2017-04-10T11:00:16.951Z,3.78
2017-04-10T11:01:15.467Z,3.47
2017-04-10T11:02:14.168Z,2.17
2017-04-10T11:03:12.549Z,2.52
2017-04-10T11:04:10.966Z,4.27
2017-04-10T11:05:09.405Z,2.40
2017-04-10T11:06:07.828Z,3.43
2017-04-10T11:07:09.581Z,2.83
2017-04-10T11:08:08.725Z,2.42
2017-04-10T11:09:07.142Z,2.22
2017-04-10T11:17:34.474Z,2.12
2017-04-10T11:18:33.613Z,4.28
2017-04-10T11:19:33.652Z,2.62
2017-04-10T11:20:32.065Z,3.48
2017-04-10T11:21:30.463Z,2.82
2017-04-10T11:22:29.591Z,2.45
2017-04-10T11:23:28.050Z,2.67
2017-04-10T11:24:27.184Z,3.68
2017-04-10T11:25:25.588Z,2.75
2017-04-10T11:26:23.947Z,2.65
2017-04-10T11:27:23.163Z,3.10
2017-04-10T11:28:21.573Z,5.68
2017-04-10T11:29:21.968Z,3.10
2017-04-10T11:30:20.451Z,2.90
2017-04-10T11:31:19.193Z,2.93
2017-04-10T11:32:17.674Z,2.72
2017-04-10T11:33:16.069Z,2.55
2017-04-10T11:34:14.467Z,3.60
2017-04-10T11:35:14.484Z,2.77
2017-04-10T11:36:13.641Z,2.67
2017-04-10T11:37:12.056Z,3.20
2017-04-10T11:38:10.485Z,3.52
2017-04-10T11:39:08.932Z,3.27
2017-04-10T11:40:07.611Z,2.83
2017-04-10T11:41:06.105Z,2.67
2017-04-10T11:42:04.509Z,3.02
2017-04-10T11:43:02.949Z,2.90
2017-04-10T11:44:01.889Z,2.82
2017-04-10T11:45:00.643Z,2.32
2017-04-10T11:45:59.397Z,4.80
2017-04-10T11:46:58.646Z,2.48
2017-04-10T11:47:57.025Z,3.50
2017-04-10T11:48:55.409Z,2.92
2017-04-10T11:49:53.811Z,5.27
2017-04-10T11:50:52.223Z,2.57
2017-04-10T11:51:50.710Z,4.55
2017-04-10T11:52:49.161Z,3.43
2017-04-10T11:53:47.558Z,4.50
2017-04-10T11:54:45.949Z,3.05
2017-04-10T11:55:44.647Z,2.52
2017-04-10T11:56:43.056Z,3.00
2017-04-10T11:57:41.478Z,2.60
2017-04-10T11:58:39.961Z,2.95
2017-04-10T11:59:39.356Z,3.42
2017-04-10T12:00:37.845Z,2.73
2017-04-10T12:01:36.249Z,3.08
2017-04-10T12:02:35.378Z,2.22
2017-04-10T12:03:33.766Z,4.22
2017-04-10T12:04:32.120Z,2.65
2017-04-10T12:05:30.937Z,3.12
2017-04-10T12:06:29.328Z,4.20
2017-04-10T12:07:28.206Z,4.67
2017-04-10T12:08:27.335Z,2.97
2017-04-10T12:09:25.759Z,2.67
2017-04-10T12:10:24.911Z,2.82
2017-04-10T12:11:23.377Z,2.52
2017-04-10T12:12:21.852Z,4.15
2017-04-10T12:13:20.234Z,6.67
2017-04-10T12:14:18.634Z,3.63
2017-04-10T12:15:17.763Z,4.45
2017-04-10T12:16:17.154Z,2.75
2017-04-10T12:17:15.551Z,4.00
2017-04-10T12:18:13.990Z,2.60
2017-04-10T12:19:12.393Z,2.37
2017-04-10T12:20:10.858Z,2.53
2017-04-10T12:21:09.283Z,2.97
2017-04-10T12:22:07.702Z,3.38
2017-04-10T12:23:06.093Z,2.95
2017-04-10T12:24:06.264Z,3.00
2017-04-10T12:25:04.713Z,2.80
2017-04-10T12:26:03.577Z,3.33
2017-04-10T12:27:02.026Z,4.35
2017-04-10T12:28:01.613Z,2.40
2017-04-10T12:29:01.121Z,2.85
2017-04-10T12:29:59.832Z,2.25
2017-04-10T12:30:58.221Z,3.32
2017-04-10T12:31:57.416Z,3.57
2017-04-10T12:32:55.838Z,3.47
2017-04-10T12:33:54.236Z,2.75
2017-04-10T12:34:52.672Z,3.10
2017-04-10T12:35:51.115Z,3.00
2017-04-10T12:36:50.350Z,2.80
2017-04-10T12:37:48.802Z,3.65
2017-04-10T12:38:47.202Z,3.43
2017-04-10T12:39:45.643Z,3.52
2017-04-10T12:40:44.055Z,2.80
2017-04-10T12:41:42.465Z,2.50
2017-04-10T12:42:41.609Z,2.63
2017-04-10T12:43:40.116Z,3.53
2017-04-10T12:44:39.235Z,2.68
2017-04-10T12:45:37.994Z,3.17
2017-04-10T12:46:36.454Z,2.90
2017-04-10T12:47:35.618Z,2.60
2017-04-10T12:48:34.018Z,2.43
2017-04-10T12:49:32.450Z,2.55
2017-04-10T12:50:30.890Z,3.55
2017-04-10T12:51:29.283Z,3.38
2017-04-10T12:52:27.925Z,3.13
2017-04-10T12:53:26.279Z,3.15
2017-04-10T12:54:24.696Z,3.87
2017-04-10T12:55:23.905Z,4.82
2017-04-10T12:56:23.083Z,3.57
2017-04-10T12:57:21.486Z,2.38
2017-04-10T12:58:20.667Z,3.85
2017-04-10T12:59:19.823Z,3.25
2017-04-10T13:00:18.261Z,3.00